Gabo Island, Australia
Current Conditions -  °F | °C
As of 12:00 AM on Friday 28 Nov 2014 (Local Time) from YMER Reporting Station
Scattered Clouds Scattered Clouds  
Wind Chill: 57°   Ceiling: Unl
Heat Index: 57°   Visibility: 6mi
Dew Point: 52°   Wind: 0mph
Humidity: 82%   Direction: NA
Pressure: 30.24"   Gusts: NA
Location:  37.56°S, 149.91°E
Report Text: YMER 271300Z AUTO 00000KT 9999 // SCT038 SCT050 14/11 Q1024
Loading
Personal Weather Stations






























Interactive Weather Map New forecast layout! Learn more

10-Day Weather Forecast

Advertisements
Track Severe Weather on mobile